sensor_id;sensor_type;location;lat;lon;timestamp;P1;durP1;ratioP1;P2;durP2;ratioP2
25069;SDS011;13064;48.162;11.536;2023-04-23T00:01:51;5.13;;;2.40;;
25069;SDS011;13064;48.162;11.536;2023-04-23T00:04:20;4.45;;;2.60;;
25069;SDS011;13064;48.162;11.536;2023-04-23T00:06:49;3.17;;;1.98;;
25069;SDS011;13064;48.162;11.536;2023-04-23T00:09:18;3.80;;;2.28;;
25069;SDS011;13064;48.162;11.536;2023-04-23T00:11:46;5.78;;;2.47;;
25069;SDS011;13064;48.162;11.536;2023-04-23T00:14:13;3.63;;;1.90;;
25069;SDS011;13064;48.162;11.536;2023-04-23T00:16:41;4.75;;;2.35;;
25069;SDS011;13064;48.162;11.536;2023-04-23T00:19:09;3.45;;;2.50;;
25069;SDS011;13064;48.162;11.536;2023-04-23T00:21:37;2.50;;;2.10;;
25069;SDS011;13064;48.162;11.536;2023-04-23T00:24:04;3.60;;;2.22;;
25069;SDS011;13064;48.162;11.536;2023-04-23T00:26:32;3.72;;;1.95;;
25069;SDS011;13064;48.162;11.536;2023-04-23T00:29:00;4.68;;;2.47;;
25069;SDS011;13064;48.162;11.536;2023-04-23T00:31:28;3.03;;;2.15;;
25069;SDS011;13064;48.162;11.536;2023-04-23T00:33:56;3.70;;;2.00;;
25069;SDS011;13064;48.162;11.536;2023-04-23T00:36:23;3.55;;;2.00;;
25069;SDS011;13064;48.162;11.536;2023-04-23T00:38:51;2.63;;;2.10;;
25069;SDS011;13064;48.162;11.536;2023-04-23T00:41:19;3.22;;;2.00;;
25069;SDS011;13064;48.162;11.536;2023-04-23T00:43:47;4.47;;;2.00;;
25069;SDS011;13064;48.162;11.536;2023-04-23T00:46:14;3.33;;;2.10;;
25069;SDS011;13064;48.162;11.536;2023-04-23T00:48:43;4.72;;;2.00;;
25069;SDS011;13064;48.162;11.536;2023-04-23T00:51:10;6.47;;;1.95;;
25069;SDS011;13064;48.162;11.536;2023-04-23T00:53:38;2.42;;;2.13;;
25069;SDS011;13064;48.162;11.536;2023-04-23T00:56:06;2.78;;;1.92;;
25069;SDS011;13064;48.162;11.536;2023-04-23T00:58:34;2.50;;;1.95;;
25069;SDS011;13064;48.162;11.536;2023-04-23T01:01:02;3.83;;;1.90;;
25069;SDS011;13064;48.162;11.536;2023-04-23T01:03:30;6.07;;;2.10;;
25069;SDS011;13064;48.162;11.536;2023-04-23T01:05:58;2.42;;;1.90;;
25069;SDS011;13064;48.162;11.536;2023-04-23T01:08:26;3.13;;;2.13;;
25069;SDS011;13064;48.162;11.536;2023-04-23T01:10:55;2.55;;;1.80;;
25069;SDS011;13064;48.162;11.536;2023-04-23T01:13:24;3.67;;;1.85;;
25069;SDS011;13064;48.162;11.536;2023-04-23T01:15:55;5.63;;;1.90;;
25069;SDS011;13064;48.162;11.536;2023-04-23T01:18:23;2.83;;;2.00;;
25069;SDS011;13064;48.162;11.536;2023-04-23T01:20:52;2.85;;;1.85;;
25069;SDS011;13064;48.162;11.536;2023-04-23T01:23:20;2.97;;;2.00;;
25069;SDS011;13064;48.162;11.536;2023-04-23T01:25:48;3.42;;;2.20;;
25069;SDS011;13064;48.162;11.536;2023-04-23T01:28:15;5.03;;;2.63;;
25069;SDS011;13064;48.162;11.536;2023-04-23T01:30:43;4.63;;;2.05;;
25069;SDS011;13064;48.162;11.536;2023-04-23T01:33:11;5.78;;;2.35;;
25069;SDS011;13064;48.162;11.536;2023-04-23T01:35:39;2.88;;;1.95;;
25069;SDS011;13064;48.162;11.536;2023-04-23T01:40:38;3.80;;;1.80;;
25069;SDS011;13064;48.162;11.536;2023-04-23T01:43:06;4.93;;;1.95;;
25069;SDS011;13064;48.162;11.536;2023-04-23T01:45:33;2.53;;;1.88;;
25069;SDS011;13064;48.162;11.536;2023-04-23T01:48:01;3.72;;;1.95;;
25069;SDS011;13064;48.162;11.536;2023-04-23T01:50:29;3.88;;;2.17;;
25069;SDS011;13064;48.162;11.536;2023-04-23T01:52:57;2.22;;;2.00;;
25069;SDS011;13064;48.162;11.536;2023-04-23T01:55:25;4.05;;;2.08;;
25069;SDS011;13064;48.162;11.536;2023-04-23T01:57:52;4.00;;;2.20;;
25069;SDS011;13064;48.162;11.536;2023-04-23T02:00:21;2.85;;;2.05;;
25069;SDS011;13064;48.162;11.536;2023-04-23T02:02:48;4.10;;;2.33;;
25069;SDS011;13064;48.162;11.536;2023-04-23T02:05:20;3.78;;;2.40;;
25069;SDS011;13064;48.162;11.536;2023-04-23T02:07:48;4.35;;;2.20;;
25069;SDS011;13064;48.162;11.536;2023-04-23T02:10:16;6.07;;;2.28;;
25069;SDS011;13064;48.162;11.536;2023-04-23T02:12:47;3.88;;;2.22;;
25069;SDS011;13064;48.162;11.536;2023-04-23T02:15:15;4.93;;;1.85;;
25069;SDS011;13064;48.162;11.536;2023-04-23T02:17:43;3.38;;;2.10;;
25069;SDS011;13064;48.162;11.536;2023-04-23T02:20:11;3.92;;;2.97;;
25069;SDS011;13064;48.162;11.536;2023-04-23T02:22:39;4.50;;;2.55;;
25069;SDS011;13064;48.162;11.536;2023-04-23T02:25:07;4.38;;;2.63;;
25069;SDS011;13064;48.162;11.536;2023-04-23T02:27:36;3.03;;;2.28;;
25069;SDS011;13064;48.162;11.536;2023-04-23T02:30:03;3.67;;;2.53;;
25069;SDS011;13064;48.162;11.536;2023-04-23T02:32:34;2.72;;;2.20;;
25069;SDS011;13064;48.162;11.536;2023-04-23T02:35:03;4.55;;;2.20;;
25069;SDS011;13064;48.162;11.536;2023-04-23T02:37:32;3.40;;;2.70;;
25069;SDS011;13064;48.162;11.536;2023-04-23T02:40:00;3.75;;;2.53;;
25069;SDS011;13064;48.162;11.536;2023-04-23T02:42:28;4.65;;;2.55;;
25069;SDS011;13064;48.162;11.536;2023-04-23T02:44:55;2.85;;;2.28;;
25069;SDS011;13064;48.162;11.536;2023-04-23T02:47:23;4.55;;;2.60;;
25069;SDS011;13064;48.162;11.536;2023-04-23T02:49:50;4.60;;;2.58;;
25069;SDS011;13064;48.162;11.536;2023-04-23T02:52:19;2.97;;;2.40;;
25069;SDS011;13064;48.162;11.536;2023-04-23T02:54:46;3.45;;;2.42;;
25069;SDS011;13064;48.162;11.536;2023-04-23T02:57:14;3.95;;;2.72;;
25069;SDS011;13064;48.162;11.536;2023-04-23T02:59:42;7.28;;;2.65;;
25069;SDS011;13064;48.162;11.536;2023-04-23T03:02:10;4.80;;;2.38;;
25069;SDS011;13064;48.162;11.536;2023-04-23T03:04:37;2.97;;;2.40;;
25069;SDS011;13064;48.162;11.536;2023-04-23T03:07:06;4.18;;;2.65;;
25069;SDS011;13064;48.162;11.536;2023-04-23T03:09:34;2.92;;;2.60;;
25069;SDS011;13064;48.162;11.536;2023-04-23T03:12:02;4.00;;;2.65;;
25069;SDS011;13064;48.162;11.536;2023-04-23T03:14:29;4.80;;;2.40;;
25069;SDS011;13064;48.162;11.536;2023-04-23T03:16:57;4.15;;;2.53;;
25069;SDS011;13064;48.162;11.536;2023-04-23T03:19:25;6.25;;;2.20;;
25069;SDS011;13064;48.162;11.536;2023-04-23T03:21:53;2.63;;;2.15;;
25069;SDS011;13064;48.162;11.536;2023-04-23T03:24:21;3.88;;;2.50;;
25069;SDS011;13064;48.162;11.536;2023-04-23T03:26:48;2.97;;;2.30;;
25069;SDS011;13064;48.162;11.536;2023-04-23T03:29:16;3.75;;;2.28;;
25069;SDS011;13064;48.162;11.536;2023-04-23T03:31:44;5.28;;;2.35;;
25069;SDS011;13064;48.162;11.536;2023-04-23T03:34:11;5.10;;;2.33;;
25069;SDS011;13064;48.162;11.536;2023-04-23T03:36:40;3.45;;;2.10;;
25069;SDS011;13064;48.162;11.536;2023-04-23T03:39:07;3.42;;;2.38;;
25069;SDS011;13064;48.162;11.536;2023-04-23T03:41:46;4.78;;;2.30;;
25069;SDS011;13064;48.162;11.536;2023-04-23T03:44:17;6.15;;;2.33;;
25069;SDS011;13064;48.162;11.536;2023-04-23T03:46:45;4.97;;;2.25;;
25069;SDS011;13064;48.162;11.536;2023-04-23T03:49:15;4.00;;;2.58;;
25069;SDS011;13064;48.162;11.536;2023-04-23T03:51:43;4.30;;;2.42;;
25069;SDS011;13064;48.162;11.536;2023-04-23T03:54:11;4.90;;;2.30;;
25069;SDS011;13064;48.162;11.536;2023-04-23T03:56:54;3.20;;;2.20;;
25069;SDS011;13064;48.162;11.536;2023-04-23T03:59:27;2.70;;;2.35;;
25069;SDS011;13064;48.162;11.536;2023-04-23T04:01:57;3.75;;;2.55;;
25069;SDS011;13064;48.162;11.536;2023-04-23T04:04:25;3.95;;;2.13;;
25069;SDS011;13064;48.162;11.536;2023-04-23T04:06:55;3.35;;;2.05;;
25069;SDS011;13064;48.162;11.536;2023-04-23T04:09:26;4.65;;;2.67;;
25069;SDS011;13064;48.162;11.536;2023-04-23T04:11:54;6.45;;;2.30;;
25069;SDS011;13064;48.162;11.536;2023-04-23T04:14:21;3.70;;;2.20;;
25069;SDS011;13064;48.162;11.536;2023-04-23T04:16:49;3.47;;;2.33;;
25069;SDS011;13064;48.162;11.536;2023-04-23T04:19:16;3.63;;;2.47;;
25069;SDS011;13064;48.162;11.536;2023-04-23T04:21:44;4.60;;;2.33;;
25069;SDS011;13064;48.162;11.536;2023-04-23T04:24:12;2.70;;;2.30;;
25069;SDS011;13064;48.162;11.536;2023-04-23T04:26:39;3.22;;;2.35;;
25069;SDS011;13064;48.162;11.536;2023-04-23T04:29:07;4.38;;;2.70;;
25069;SDS011;13064;48.162;11.536;2023-04-23T04:31:36;4.63;;;2.42;;
25069;SDS011;13064;48.162;11.536;2023-04-23T04:34:03;4.32;;;2.63;;
25069;SDS011;13064;48.162;11.536;2023-04-23T04:36:32;4.82;;;2.53;;
25069;SDS011;13064;48.162;11.536;2023-04-23T04:39:01;3.97;;;2.72;;
25069;SDS011;13064;48.162;11.536;2023-04-23T04:41:29;6.72;;;3.10;;
25069;SDS011;13064;48.162;11.536;2023-04-23T04:43:56;2.97;;;2.65;;
25069;SDS011;13064;48.162;11.536;2023-04-23T04:46:24;4.53;;;3.22;;
25069;SDS011;13064;48.162;11.536;2023-04-23T04:48:54;3.55;;;3.00;;
25069;SDS011;13064;48.162;11.536;2023-04-23T04:51:22;4.55;;;3.50;;
25069;SDS011;13064;48.162;11.536;2023-04-23T04:53:49;6.43;;;2.85;;
25069;SDS011;13064;48.162;11.536;2023-04-23T04:56:17;4.45;;;3.20;;
25069;SDS011;13064;48.162;11.536;2023-04-23T04:58:44;3.47;;;2.78;;
25069;SDS011;13064;48.162;11.536;2023-04-23T05:01:12;3.08;;;2.75;;
25069;SDS011;13064;48.162;11.536;2023-04-23T05:03:40;4.78;;;3.20;;
25069;SDS011;13064;48.162;11.536;2023-04-23T05:06:08;3.88;;;3.03;;
25069;SDS011;13064;48.162;11.536;2023-04-23T05:08:36;4.88;;;2.95;;
25069;SDS011;13064;48.162;11.536;2023-04-23T05:11:04;4.38;;;3.00;;
25069;SDS011;13064;48.162;11.536;2023-04-23T05:13:31;5.88;;;2.95;;
25069;SDS011;13064;48.162;11.536;2023-04-23T05:15:59;6.57;;;3.88;;
25069;SDS011;13064;48.162;11.536;2023-04-23T05:18:26;4.20;;;2.85;;
25069;SDS011;13064;48.162;11.536;2023-04-23T05:20:55;5.97;;;3.30;;
25069;SDS011;13064;48.162;11.536;2023-04-23T05:23:22;4.28;;;3.47;;
25069;SDS011;13064;48.162;11.536;2023-04-23T05:25:50;6.70;;;3.40;;
25069;SDS011;13064;48.162;11.536;2023-04-23T05:28:21;3.92;;;3.30;;
25069;SDS011;13064;48.162;11.536;2023-04-23T05:30:50;4.32;;;3.28;;
25069;SDS011;13064;48.162;11.536;2023-04-23T05:33:18;5.65;;;3.60;;
25069;SDS011;13064;48.162;11.536;2023-04-23T05:35:45;5.88;;;3.70;;
25069;SDS011;13064;48.162;11.536;2023-04-23T05:38:13;5.90;;;3.70;;
25069;SDS011;13064;48.162;11.536;2023-04-23T05:40:40;6.93;;;3.72;;
25069;SDS011;13064;48.162;11.536;2023-04-23T05:43:08;5.22;;;4.07;;
25069;SDS011;13064;48.162;11.536;2023-04-23T05:45:37;6.78;;;4.00;;
25069;SDS011;13064;48.162;11.536;2023-04-23T05:48:04;6.82;;;3.70;;
25069;SDS011;13064;48.162;11.536;2023-04-23T05:50:32;6.75;;;3.88;;
25069;SDS011;13064;48.162;11.536;2023-04-23T05:52:59;5.15;;;3.70;;
25069;SDS011;13064;48.162;11.536;2023-04-23T05:55:27;6.93;;;4.35;;
25069;SDS011;13064;48.162;11.536;2023-04-23T05:57:55;5.40;;;4.07;;
25069;SDS011;13064;48.162;11.536;2023-04-23T06:00:22;4.72;;;4.00;;
25069;SDS011;13064;48.162;11.536;2023-04-23T06:02:50;6.03;;;3.92;;
25069;SDS011;13064;48.162;11.536;2023-04-23T06:05:18;5.28;;;3.95;;
25069;SDS011;13064;48.162;11.536;2023-04-23T06:07:46;7.53;;;4.55;;
25069;SDS011;13064;48.162;11.536;2023-04-23T06:10:14;5.20;;;4.45;;
25069;SDS011;13064;48.162;11.536;2023-04-23T06:12:41;7.10;;;4.68;;
25069;SDS011;13064;48.162;11.536;2023-04-23T06:15:09;6.47;;;4.78;;
25069;SDS011;13064;48.162;11.536;2023-04-23T06:17:36;8.15;;;5.30;;
25069;SDS011;13064;48.162;11.536;2023-04-23T06:20:04;7.20;;;5.03;;
25069;SDS011;13064;48.162;11.536;2023-04-23T06:22:33;7.55;;;5.38;;
25069;SDS011;13064;48.162;11.536;2023-04-23T06:25:00;9.50;;;5.53;;
25069;SDS011;13064;48.162;11.536;2023-04-23T06:27:28;6.78;;;5.18;;
25069;SDS011;13064;48.162;11.536;2023-04-23T06:30:00;8.15;;;5.18;;
25069;SDS011;13064;48.162;11.536;2023-04-23T06:32:28;8.18;;;5.15;;
25069;SDS011;13064;48.162;11.536;2023-04-23T06:34:57;8.13;;;5.18;;
25069;SDS011;13064;48.162;11.536;2023-04-23T06:37:28;5.43;;;4.80;;
25069;SDS011;13064;48.162;11.536;2023-04-23T06:39:57;8.45;;;4.93;;
25069;SDS011;13064;48.162;11.536;2023-04-23T06:42:25;6.05;;;4.25;;
25069;SDS011;13064;48.162;11.536;2023-04-23T06:45:22;6.65;;;4.70;;
25069;SDS011;13064;48.162;11.536;2023-04-23T06:47:50;6.03;;;4.43;;
25069;SDS011;13064;48.162;11.536;2023-04-23T06:50:17;7.38;;;4.47;;
25069;SDS011;13064;48.162;11.536;2023-04-23T06:52:45;6.28;;;4.75;;
25069;SDS011;13064;48.162;11.536;2023-04-23T06:55:12;6.45;;;4.28;;
25069;SDS011;13064;48.162;11.536;2023-04-23T06:57:40;6.55;;;4.63;;
25069;SDS011;13064;48.162;11.536;2023-04-23T07:00:08;7.78;;;5.07;;
25069;SDS011;13064;48.162;11.536;2023-04-23T07:02:41;6.65;;;4.85;;
25069;SDS011;13064;48.162;11.536;2023-04-23T07:05:08;6.70;;;4.63;;
25069;SDS011;13064;48.162;11.536;2023-04-23T07:07:36;6.50;;;5.40;;
25069;SDS011;13064;48.162;11.536;2023-04-23T07:10:04;7.88;;;4.95;;
25069;SDS011;13064;48.162;11.536;2023-04-23T07:12:32;6.57;;;5.22;;
25069;SDS011;13064;48.162;11.536;2023-04-23T07:15:00;6.18;;;4.93;;
25069;SDS011;13064;48.162;11.536;2023-04-23T07:17:27;6.88;;;4.95;;
25069;SDS011;13064;48.162;11.536;2023-04-23T07:19:55;6.30;;;4.78;;
25069;SDS011;13064;48.162;11.536;2023-04-23T07:22:23;6.75;;;4.45;;
25069;SDS011;13064;48.162;11.536;2023-04-23T07:24:51;4.80;;;4.32;;
25069;SDS011;13064;48.162;11.536;2023-04-23T07:27:19;4.78;;;4.03;;
25069;SDS011;13064;48.162;11.536;2023-04-23T07:29:46;4.28;;;3.72;;
25069;SDS011;13064;48.162;11.536;2023-04-23T07:32:14;5.47;;;3.90;;
25069;SDS011;13064;48.162;11.536;2023-04-23T07:34:42;6.05;;;4.20;;
25069;SDS011;13064;48.162;11.536;2023-04-23T07:37:10;5.72;;;4.07;;
25069;SDS011;13064;48.162;11.536;2023-04-23T07:39:37;5.22;;;3.90;;
25069;SDS011;13064;48.162;11.536;2023-04-23T07:42:11;6.05;;;4.15;;
25069;SDS011;13064;48.162;11.536;2023-04-23T07:44:39;4.85;;;4.07;;
25069;SDS011;13064;48.162;11.536;2023-04-23T07:47:07;6.53;;;4.20;;
25069;SDS011;13064;48.162;11.536;2023-04-23T07:49:35;4.63;;;4.05;;
25069;SDS011;13064;48.162;11.536;2023-04-23T07:52:02;4.93;;;4.00;;
25069;SDS011;13064;48.162;11.536;2023-04-23T07:54:30;6.90;;;3.42;;
25069;SDS011;13064;48.162;11.536;2023-04-23T07:56:58;4.90;;;3.78;;
25069;SDS011;13064;48.162;11.536;2023-04-23T07:59:26;4.97;;;3.90;;
25069;SDS011;13064;48.162;11.536;2023-04-23T08:01:54;3.78;;;3.20;;
25069;SDS011;13064;48.162;11.536;2023-04-23T08:04:22;4.55;;;3.03;;
25069;SDS011;13064;48.162;11.536;2023-04-23T08:06:50;5.05;;;2.60;;
25069;SDS011;13064;48.162;11.536;2023-04-23T08:09:18;4.20;;;2.72;;
25069;SDS011;13064;48.162;11.536;2023-04-23T08:11:45;5.35;;;3.17;;
25069;SDS011;13064;48.162;11.536;2023-04-23T08:14:13;4.10;;;2.80;;
25069;SDS011;13064;48.162;11.536;2023-04-23T08:16:41;4.32;;;3.00;;
25069;SDS011;13064;48.162;11.536;2023-04-23T08:19:09;3.15;;;2.85;;
25069;SDS011;13064;48.162;11.536;2023-04-23T08:21:37;4.85;;;3.15;;
25069;SDS011;13064;48.162;11.536;2023-04-23T08:24:05;3.55;;;2.75;;
25069;SDS011;13064;48.162;11.536;2023-04-23T08:26:35;3.85;;;2.78;;
25069;SDS011;13064;48.162;11.536;2023-04-23T08:29:03;4.95;;;3.40;;
25069;SDS011;13064;48.162;11.536;2023-04-23T08:31:30;3.35;;;2.92;;
25069;SDS011;13064;48.162;11.536;2023-04-23T08:34:00;5.03;;;2.80;;
25069;SDS011;13064;48.162;11.536;2023-04-23T08:36:28;3.63;;;2.80;;
25069;SDS011;13064;48.162;11.536;2023-04-23T08:38:55;4.75;;;3.28;;
25069;SDS011;13064;48.162;11.536;2023-04-23T08:41:23;5.80;;;3.53;;
25069;SDS011;13064;48.162;11.536;2023-04-23T08:44:00;2.97;;;2.42;;
25069;SDS011;13064;48.162;11.536;2023-04-23T08:46:32;3.40;;;2.70;;
25069;SDS011;13064;48.162;11.536;2023-04-23T08:49:01;3.90;;;2.90;;
25069;SDS011;13064;48.162;11.536;2023-04-23T08:51:29;3.13;;;2.75;;
25069;SDS011;13064;48.162;11.536;2023-04-23T08:53:59;3.58;;;2.78;;
25069;SDS011;13064;48.162;11.536;2023-04-23T08:56:31;3.17;;;2.72;;
25069;SDS011;13064;48.162;11.536;2023-04-23T08:58:58;4.03;;;2.60;;
25069;SDS011;13064;48.162;11.536;2023-04-23T09:01:29;4.15;;;2.00;;
25069;SDS011;13064;48.162;11.536;2023-04-23T09:03:57;2.72;;;2.10;;
25069;SDS011;13064;48.162;11.536;2023-04-23T09:06:25;3.10;;;1.95;;
25069;SDS011;13064;48.162;11.536;2023-04-23T09:08:52;2.88;;;2.35;;
25069;SDS011;13064;48.162;11.536;2023-04-23T09:11:22;3.15;;;2.10;;
25069;SDS011;13064;48.162;11.536;2023-04-23T09:13:50;2.53;;;1.80;;
25069;SDS011;13064;48.162;11.536;2023-04-23T09:16:17;3.83;;;1.90;;
25069;SDS011;13064;48.162;11.536;2023-04-23T09:18:45;3.15;;;1.92;;
25069;SDS011;13064;48.162;11.536;2023-04-23T09:21:13;2.85;;;2.08;;
25069;SDS011;13064;48.162;11.536;2023-04-23T09:23:40;2.63;;;1.98;;
25069;SDS011;13064;48.162;11.536;2023-04-23T09:26:09;3.10;;;2.28;;
25069;SDS011;13064;48.162;11.536;2023-04-23T09:28:47;2.30;;;2.10;;
25069;SDS011;13064;48.162;11.536;2023-04-23T09:31:19;4.82;;;2.17;;
25069;SDS011;13064;48.162;11.536;2023-04-23T09:33:51;1.90;;;1.73;;
25069;SDS011;13064;48.162;11.536;2023-04-23T09:36:22;5.25;;;2.22;;
25069;SDS011;13064;48.162;11.536;2023-04-23T09:38:51;2.75;;;1.98;;
25069;SDS011;13064;48.162;11.536;2023-04-23T09:41:24;2.15;;;1.75;;
25069;SDS011;13064;48.162;11.536;2023-04-23T09:43:55;2.92;;;2.03;;
25069;SDS011;13064;48.162;11.536;2023-04-23T09:46:36;2.83;;;1.88;;
25069;SDS011;13064;48.162;11.536;2023-04-23T09:49:04;3.08;;;1.95;;
25069;SDS011;13064;48.162;11.536;2023-04-23T09:51:36;2.15;;;1.90;;
25069;SDS011;13064;48.162;11.536;2023-04-23T09:54:13;2.63;;;2.10;;
25069;SDS011;13064;48.162;11.536;2023-04-23T09:56:42;2.50;;;1.80;;
25069;SDS011;13064;48.162;11.536;2023-04-23T09:59:19;4.75;;;2.22;;
25069;SDS011;13064;48.162;11.536;2023-04-23T10:02:02;3.00;;;2.08;;
25069;SDS011;13064;48.162;11.536;2023-04-23T10:04:30;4.20;;;2.35;;
25069;SDS011;13064;48.162;11.536;2023-04-23T10:07:00;2.78;;;2.10;;
25069;SDS011;13064;48.162;11.536;2023-04-23T10:09:34;2.90;;;2.10;;
25069;SDS011;13064;48.162;11.536;2023-04-23T10:12:01;4.63;;;3.13;;
25069;SDS011;13064;48.162;11.536;2023-04-23T10:14:29;3.50;;;2.22;;
25069;SDS011;13064;48.162;11.536;2023-04-23T10:16:58;2.42;;;2.08;;
25069;SDS011;13064;48.162;11.536;2023-04-23T10:19:26;2.75;;;1.90;;
25069;SDS011;13064;48.162;11.536;2023-04-23T10:21:55;2.45;;;2.20;;
25069;SDS011;13064;48.162;11.536;2023-04-23T10:24:43;2.95;;;1.85;;
25069;SDS011;13064;48.162;11.536;2023-04-23T10:27:15;3.03;;;2.00;;
25069;SDS011;13064;48.162;11.536;2023-04-23T10:30:03;2.25;;;1.70;;
25069;SDS011;13064;48.162;11.536;2023-04-23T10:32:32;3.13;;;1.88;;
25069;SDS011;13064;48.162;11.536;2023-04-23T10:35:00;3.20;;;1.83;;
25069;SDS011;13064;48.162;11.536;2023-04-23T10:37:28;2.53;;;1.85;;
25069;SDS011;13064;48.162;11.536;2023-04-23T10:39:58;4.90;;;2.20;;
25069;SDS011;13064;48.162;11.536;2023-04-23T10:42:28;2.60;;;1.92;;
25069;SDS011;13064;48.162;11.536;2023-04-23T10:44:56;3.08;;;1.90;;
25069;SDS011;13064;48.162;11.536;2023-04-23T10:47:35;2.75;;;1.85;;
25069;SDS011;13064;48.162;11.536;2023-04-23T10:50:19;4.00;;;1.80;;
25069;SDS011;13064;48.162;11.536;2023-04-23T10:52:49;2.67;;;1.90;;
25069;SDS011;13064;48.162;11.536;2023-04-23T10:55:20;2.42;;;2.00;;
25069;SDS011;13064;48.162;11.536;2023-04-23T10:57:58;2.03;;;1.83;;
25069;SDS011;13064;48.162;11.536;2023-04-23T11:00:29;2.38;;;1.85;;
25069;SDS011;13064;48.162;11.536;2023-04-23T11:02:57;1.77;;;1.67;;
25069;SDS011;13064;48.162;11.536;2023-04-23T11:05:25;2.65;;;1.60;;
25069;SDS011;13064;48.162;11.536;2023-04-23T11:08:01;1.60;;;1.50;;
25069;SDS011;13064;48.162;11.536;2023-04-23T11:10:55;4.43;;;2.38;;
25069;SDS011;13064;48.162;11.536;2023-04-23T11:13:23;1.75;;;1.50;;
25069;SDS011;13064;48.162;11.536;2023-04-23T11:24:10;4.40;;;1.70;;
25069;SDS011;13064;48.162;11.536;2023-04-23T11:26:38;2.33;;;1.70;;
25069;SDS011;13064;48.162;11.536;2023-04-23T11:29:06;1.60;;;1.50;;
25069;SDS011;13064;48.162;11.536;2023-04-23T11:31:34;2.28;;;1.63;;
25069;SDS011;13064;48.162;11.536;2023-04-23T11:34:01;1.70;;;1.35;;
25069;SDS011;13064;48.162;11.536;2023-04-23T11:36:29;2.15;;;1.50;;
25069;SDS011;13064;48.162;11.536;2023-04-23T11:38:57;2.40;;;1.52;;
25069;SDS011;13064;48.162;11.536;2023-04-23T11:41:24;3.08;;;1.50;;
25069;SDS011;13064;48.162;11.536;2023-04-23T11:43:52;2.60;;;1.40;;
25069;SDS011;13064;48.162;11.536;2023-04-23T11:46:19;2.35;;;1.85;;
25069;SDS011;13064;48.162;11.536;2023-04-23T11:48:47;3.15;;;1.70;;
25069;SDS011;13064;48.162;11.536;2023-04-23T11:51:15;1.80;;;1.60;;
25069;SDS011;13064;48.162;11.536;2023-04-23T11:53:45;3.38;;;1.90;;
25069;SDS011;13064;48.162;11.536;2023-04-23T11:56:16;2.28;;;1.30;;
25069;SDS011;13064;48.162;11.536;2023-04-23T11:58:44;1.90;;;1.30;;
25069;SDS011;13064;48.162;11.536;2023-04-23T12:01:11;1.98;;;1.40;;
25069;SDS011;13064;48.162;11.536;2023-04-23T12:03:39;3.05;;;1.80;;
25069;SDS011;13064;48.162;11.536;2023-04-23T12:06:07;1.73;;;1.42;;
25069;SDS011;13064;48.162;11.536;2023-04-23T12:08:34;2.03;;;1.38;;
25069;SDS011;13064;48.162;11.536;2023-04-23T12:11:03;1.70;;;1.20;;
25069;SDS011;13064;48.162;11.536;2023-04-23T12:13:31;2.90;;;1.80;;
25069;SDS011;13064;48.162;11.536;2023-04-23T12:16:00;3.13;;;2.05;;
25069;SDS011;13064;48.162;11.536;2023-04-23T12:18:28;2.05;;;1.30;;
25069;SDS011;13064;48.162;11.536;2023-04-23T12:23:33;1.42;;;1.30;;
25069;SDS011;13064;48.162;11.536;2023-04-23T12:26:01;1.42;;;1.25;;
25069;SDS011;13064;48.162;11.536;2023-04-23T12:28:30;2.00;;;1.33;;
25069;SDS011;13064;48.162;11.536;2023-04-23T12:30:58;2.50;;;1.13;;
25069;SDS011;13064;48.162;11.536;2023-04-23T12:33:29;1.95;;;1.60;;
25069;SDS011;13064;48.162;11.536;2023-04-23T12:35:57;4.13;;;1.85;;
25069;SDS011;13064;48.162;11.536;2023-04-23T12:41:02;2.47;;;1.88;;
25069;SDS011;13064;48.162;11.536;2023-04-23T12:43:29;3.65;;;1.80;;
25069;SDS011;13064;48.162;11.536;2023-04-23T12:45:57;2.35;;;1.60;;
25069;SDS011;13064;48.162;11.536;2023-04-23T12:48:25;1.45;;;1.35;;
25069;SDS011;13064;48.162;11.536;2023-04-23T12:50:52;2.15;;;1.70;;
25069;SDS011;13064;48.162;11.536;2023-04-23T12:53:20;1.55;;;1.30;;
25069;SDS011;13064;48.162;11.536;2023-04-23T12:55:48;2.22;;;1.70;;
25069;SDS011;13064;48.162;11.536;2023-04-23T12:58:15;3.72;;;1.45;;
25069;SDS011;13064;48.162;11.536;2023-04-23T13:00:43;1.65;;;1.50;;
25069;SDS011;13064;48.162;11.536;2023-04-23T13:03:11;1.75;;;1.60;;
25069;SDS011;13064;48.162;11.536;2023-04-23T13:05:41;2.28;;;1.70;;
25069;SDS011;13064;48.162;11.536;2023-04-23T13:08:08;1.80;;;1.63;;
25069;SDS011;13064;48.162;11.536;2023-04-23T13:10:36;1.65;;;1.55;;
25069;SDS011;13064;48.162;11.536;2023-04-23T13:13:04;3.22;;;2.05;;
25069;SDS011;13064;48.162;11.536;2023-04-23T13:15:31;1.50;;;1.40;;
25069;SDS011;13064;48.162;11.536;2023-04-23T13:18:00;2.88;;;1.65;;
25069;SDS011;13064;48.162;11.536;2023-04-23T13:20:28;1.95;;;1.73;;
25069;SDS011;13064;48.162;11.536;2023-04-23T13:22:55;2.00;;;1.67;;
25069;SDS011;13064;48.162;11.536;2023-04-23T13:25:23;1.95;;;1.52;;
25069;SDS011;13064;48.162;11.536;2023-04-23T13:27:51;2.63;;;1.83;;
25069;SDS011;13064;48.162;11.536;2023-04-23T13:30:19;1.73;;;1.42;;
25069;SDS011;13064;48.162;11.536;2023-04-23T13:32:46;1.50;;;1.40;;
25069;SDS011;13064;48.162;11.536;2023-04-23T13:35:14;3.13;;;1.52;;
25069;SDS011;13064;48.162;11.536;2023-04-23T13:37:43;4.07;;;1.73;;
25069;SDS011;13064;48.162;11.536;2023-04-23T13:40:11;4.85;;;1.73;;
25069;SDS011;13064;48.162;11.536;2023-04-23T13:42:38;1.92;;;1.50;;
25069;SDS011;13064;48.162;11.536;2023-04-23T13:45:06;2.17;;;1.75;;
25069;SDS011;13064;48.162;11.536;2023-04-23T13:47:34;2.03;;;1.80;;
25069;SDS011;13064;48.162;11.536;2023-04-23T13:50:02;2.25;;;1.83;;
25069;SDS011;13064;48.162;11.536;2023-04-23T13:52:32;2.17;;;1.80;;
25069;SDS011;13064;48.162;11.536;2023-04-23T13:55:00;2.33;;;1.70;;
25069;SDS011;13064;48.162;11.536;2023-04-23T13:57:29;2.17;;;1.80;;
25069;SDS011;13064;48.162;11.536;2023-04-23T13:59:56;2.03;;;1.73;;
25069;SDS011;13064;48.162;11.536;2023-04-23T14:02:25;2.13;;;1.63;;
25069;SDS011;13064;48.162;11.536;2023-04-23T14:04:54;2.63;;;1.85;;
25069;SDS011;13064;48.162;11.536;2023-04-23T14:07:23;3.22;;;1.95;;
25069;SDS011;13064;48.162;11.536;2023-04-23T14:09:51;2.22;;;1.92;;
25069;SDS011;13064;48.162;11.536;2023-04-23T14:12:19;1.58;;;1.48;;
25069;SDS011;13064;48.162;11.536;2023-04-23T14:14:46;1.85;;;1.50;;
25069;SDS011;13064;48.162;11.536;2023-04-23T14:17:14;2.35;;;1.92;;
25069;SDS011;13064;48.162;11.536;2023-04-23T14:19:42;2.92;;;1.90;;
25069;SDS011;13064;48.162;11.536;2023-04-23T14:22:10;3.05;;;2.08;;
25069;SDS011;13064;48.162;11.536;2023-04-23T14:24:38;3.83;;;2.05;;
25069;SDS011;13064;48.162;11.536;2023-04-23T14:27:06;3.35;;;2.08;;
25069;SDS011;13064;48.162;11.536;2023-04-23T14:29:34;2.90;;;2.30;;
25069;SDS011;13064;48.162;11.536;2023-04-23T14:32:03;3.45;;;1.95;;
25069;SDS011;13064;48.162;11.536;2023-04-23T14:34:31;3.80;;;2.75;;
25069;SDS011;13064;48.162;11.536;2023-04-23T14:37:02;3.88;;;1.98;;
25069;SDS011;13064;48.162;11.536;2023-04-23T14:39:30;2.67;;;2.10;;
25069;SDS011;13064;48.162;11.536;2023-04-23T14:41:58;3.95;;;2.72;;
25069;SDS011;13064;48.162;11.536;2023-04-23T14:44:26;2.78;;;2.20;;
25069;SDS011;13064;48.162;11.536;2023-04-23T14:46:54;2.55;;;2.03;;
25069;SDS011;13064;48.162;11.536;2023-04-23T14:49:22;3.55;;;2.38;;
25069;SDS011;13064;48.162;11.536;2023-04-23T14:51:50;3.28;;;2.15;;
25069;SDS011;13064;48.162;11.536;2023-04-23T14:54:20;5.05;;;2.33;;
25069;SDS011;13064;48.162;11.536;2023-04-23T14:56:49;4.20;;;2.35;;
25069;SDS011;13064;48.162;11.536;2023-04-23T14:59:16;3.17;;;2.30;;